sensor_id;sensor_type;location;lat;lon;timestamp;temperature;humidity
16412;DHT22;8315;52.104;6.304;2022-12-07T00:02:16;5.10;98.40
16412;DHT22;8315;52.104;6.304;2022-12-07T00:04:42;5.10;98.40
16412;DHT22;8315;52.104;6.304;2022-12-07T00:07:09;5.10;98.40
16412;DHT22;8315;52.104;6.304;2022-12-07T00:09:36;5.10;98.40
16412;DHT22;8315;52.104;6.304;2022-12-07T00:12:04;5.10;98.40
16412;DHT22;8315;52.104;6.304;2022-12-07T00:14:33;5.10;98.40
16412;DHT22;8315;52.104;6.304;2022-12-07T00:16:59;5.10;98.40
16412;DHT22;8315;52.104;6.304;2022-12-07T00:19:26;5.10;98.40
16412;DHT22;8315;52.104;6.304;2022-12-07T00:21:53;5.00;98.40
16412;DHT22;8315;52.104;6.304;2022-12-07T00:24:20;5.00;98.40
16412;DHT22;8315;52.104;6.304;2022-12-07T00:26:47;5.00;98.40
16412;DHT22;8315;52.104;6.304;2022-12-07T00:29:15;4.90;98.40
16412;DHT22;8315;52.104;6.304;2022-12-07T00:31:45;4.90;98.40
16412;DHT22;8315;52.104;6.304;2022-12-07T00:34:13;4.90;98.40
16412;DHT22;8315;52.104;6.304;2022-12-07T00:36:40;4.90;98.40
16412;DHT22;8315;52.104;6.304;2022-12-07T00:39:07;4.90;98.40
16412;DHT22;8315;52.104;6.304;2022-12-07T00:41:34;4.90;98.40
16412;DHT22;8315;52.104;6.304;2022-12-07T00:44:01;4.90;98.40
16412;DHT22;8315;52.104;6.304;2022-12-07T00:46:28;4.90;98.40
16412;DHT22;8315;52.104;6.304;2022-12-07T00:48:56;4.80;98.40
16412;DHT22;8315;52.104;6.304;2022-12-07T00:51:23;4.80;98.40
16412;DHT22;8315;52.104;6.304;2022-12-07T00:53:51;4.80;98.40
16412;DHT22;8315;52.104;6.304;2022-12-07T00:56:19;4.80;98.40
16412;DHT22;8315;52.104;6.304;2022-12-07T00:58:49;4.80;98.40
16412;DHT22;8315;52.104;6.304;2022-12-07T01:01:18;4.70;98.40
16412;DHT22;8315;52.104;6.304;2022-12-07T01:03:45;4.70;98.40
16412;DHT22;8315;52.104;6.304;2022-12-07T01:06:15;4.70;98.40
16412;DHT22;8315;52.104;6.304;2022-12-07T01:08:42;4.70;98.40
16412;DHT22;8315;52.104;6.304;2022-12-07T01:11:09;4.70;98.40
16412;DHT22;8315;52.104;6.304;2022-12-07T01:13:38;4.70;98.40
16412;DHT22;8315;52.104;6.304;2022-12-07T01:16:05;4.70;98.40
16412;DHT22;8315;52.104;6.304;2022-12-07T01:18:33;4.70;98.40
16412;DHT22;8315;52.104;6.304;2022-12-07T01:21:01;4.60;98.40
16412;DHT22;8315;52.104;6.304;2022-12-07T01:23:31;4.60;98.40
16412;DHT22;8315;52.104;6.304;2022-12-07T01:25:58;4.60;98.40
16412;DHT22;8315;52.104;6.304;2022-12-07T01:28:27;4.60;98.40
16412;DHT22;8315;52.104;6.304;2022-12-07T01:30:55;4.60;98.40
16412;DHT22;8315;52.104;6.304;2022-12-07T01:33:23;4.60;98.40
16412;DHT22;8315;52.104;6.304;2022-12-07T01:35:49;4.60;98.40
16412;DHT22;8315;52.104;6.304;2022-12-07T01:38:16;4.50;98.40
16412;DHT22;8315;52.104;6.304;2022-12-07T01:40:44;4.50;98.40
16412;DHT22;8315;52.104;6.304;2022-12-07T01:43:14;4.50;98.40
16412;DHT22;8315;52.104;6.304;2022-12-07T01:45:43;4.50;98.40
16412;DHT22;8315;52.104;6.304;2022-12-07T01:48:11;4.50;98.40
16412;DHT22;8315;52.104;6.304;2022-12-07T01:50:39;4.40;98.40
16412;DHT22;8315;52.104;6.304;2022-12-07T01:53:07;4.40;98.40
16412;DHT22;8315;52.104;6.304;2022-12-07T01:55:37;4.40;98.40
16412;DHT22;8315;52.104;6.304;2022-12-07T01:58:08;4.30;98.40
16412;DHT22;8315;52.104;6.304;2022-12-07T02:00:35;4.30;98.40
16412;DHT22;8315;52.104;6.304;2022-12-07T02:03:04;4.30;98.40
16412;DHT22;8315;52.104;6.304;2022-12-07T02:05:33;4.30;98.40
16412;DHT22;8315;52.104;6.304;2022-12-07T02:08:00;4.30;98.40
16412;DHT22;8315;52.104;6.304;2022-12-07T02:10:28;4.30;98.40
16412;DHT22;8315;52.104;6.304;2022-12-07T02:12:57;4.20;98.40
16412;DHT22;8315;52.104;6.304;2022-12-07T02:15:27;4.20;98.40
16412;DHT22;8315;52.104;6.304;2022-12-07T02:18:00;4.20;98.40
16412;DHT22;8315;52.104;6.304;2022-12-07T02:20:29;4.20;98.40
16412;DHT22;8315;52.104;6.304;2022-12-07T02:29:07;4.30;98.40
16412;DHT22;8315;52.104;6.304;2022-12-07T02:31:37;4.20;98.40
16412;DHT22;8315;52.104;6.304;2022-12-07T02:34:12;4.20;98.40
16412;DHT22;8315;52.104;6.304;2022-12-07T02:36:46;4.20;98.40
16412;DHT22;8315;52.104;6.304;2022-12-07T02:39:17;4.20;98.40
16412;DHT22;8315;52.104;6.304;2022-12-07T02:41:46;4.10;98.40
16412;DHT22;8315;52.104;6.304;2022-12-07T02:44:16;4.10;98.40
16412;DHT22;8315;52.104;6.304;2022-12-07T02:46:46;4.10;98.40
16412;DHT22;8315;52.104;6.304;2022-12-07T02:49:16;4.10;98.40
16412;DHT22;8315;52.104;6.304;2022-12-07T02:51:44;4.10;98.40
16412;DHT22;8315;52.104;6.304;2022-12-07T02:54:13;4.10;98.40
16412;DHT22;8315;52.104;6.304;2022-12-07T02:56:43;4.00;98.40
16412;DHT22;8315;52.104;6.304;2022-12-07T02:59:14;4.00;98.40
16412;DHT22;8315;52.104;6.304;2022-12-07T03:01:49;4.10;98.40
16412;DHT22;8315;52.104;6.304;2022-12-07T03:04:23;4.10;98.40
16412;DHT22;8315;52.104;6.304;2022-12-07T03:06:56;4.00;98.40
16412;DHT22;8315;52.104;6.304;2022-12-07T03:09:27;4.00;98.40
16412;DHT22;8315;52.104;6.304;2022-12-07T03:12:00;4.00;98.40
16412;DHT22;8315;52.104;6.304;2022-12-07T03:14:31;4.00;98.40
16412;DHT22;8315;52.104;6.304;2022-12-07T03:17:02;4.10;98.40
16412;DHT22;8315;52.104;6.304;2022-12-07T03:19:31;4.10;98.40
16412;DHT22;8315;52.104;6.304;2022-12-07T03:22:00;4.10;98.40
16412;DHT22;8315;52.104;6.304;2022-12-07T03:24:31;4.00;98.40
16412;DHT22;8315;52.104;6.304;2022-12-07T03:27:03;4.00;98.40
16412;DHT22;8315;52.104;6.304;2022-12-07T03:29:33;4.10;98.40
16412;DHT22;8315;52.104;6.304;2022-12-07T03:32:02;4.00;98.40
16412;DHT22;8315;52.104;6.304;2022-12-07T03:34:33;4.00;98.40
16412;DHT22;8315;52.104;6.304;2022-12-07T03:37:03;4.00;98.40
16412;DHT22;8315;52.104;6.304;2022-12-07T03:39:33;4.00;98.40
16412;DHT22;8315;52.104;6.304;2022-12-07T03:42:03;4.00;98.40
16412;DHT22;8315;52.104;6.304;2022-12-07T03:44:33;4.10;98.40
16412;DHT22;8315;52.104;6.304;2022-12-07T03:47:01;4.10;98.40
16412;DHT22;8315;52.104;6.304;2022-12-07T03:49:30;4.10;98.40
16412;DHT22;8315;52.104;6.304;2022-12-07T03:52:00;4.10;98.40
16412;DHT22;8315;52.104;6.304;2022-12-07T03:54:30;4.10;98.40
16412;DHT22;8315;52.104;6.304;2022-12-07T03:57:01;4.10;98.40
16412;DHT22;8315;52.104;6.304;2022-12-07T03:59:29;4.10;98.40
16412;DHT22;8315;52.104;6.304;2022-12-07T04:02:01;4.20;98.40
16412;DHT22;8315;52.104;6.304;2022-12-07T04:04:29;4.20;98.40
16412;DHT22;8315;52.104;6.304;2022-12-07T04:06:56;4.20;98.40
16412;DHT22;8315;52.104;6.304;2022-12-07T04:09:23;4.20;98.40
16412;DHT22;8315;52.104;6.304;2022-12-07T04:11:50;4.20;98.40
16412;DHT22;8315;52.104;6.304;2022-12-07T04:14:17;4.20;98.40
16412;DHT22;8315;52.104;6.304;2022-12-07T04:16:44;4.30;98.40
16412;DHT22;8315;52.104;6.304;2022-12-07T04:19:12;4.30;98.40
16412;DHT22;8315;52.104;6.304;2022-12-07T04:21:40;4.30;98.40
16412;DHT22;8315;52.104;6.304;2022-12-07T04:24:06;4.30;98.40
16412;DHT22;8315;52.104;6.304;2022-12-07T04:26:33;4.30;98.40
16412;DHT22;8315;52.104;6.304;2022-12-07T04:29:00;4.30;98.40
16412;DHT22;8315;52.104;6.304;2022-12-07T04:31:27;4.30;98.40
16412;DHT22;8315;52.104;6.304;2022-12-07T04:33:54;4.20;98.40
16412;DHT22;8315;52.104;6.304;2022-12-07T04:36:22;4.30;98.40
16412;DHT22;8315;52.104;6.304;2022-12-07T04:38:48;4.30;98.40
16412;DHT22;8315;52.104;6.304;2022-12-07T04:41:15;4.30;98.40
16412;DHT22;8315;52.104;6.304;2022-12-07T04:43:42;4.20;98.40
16412;DHT22;8315;52.104;6.304;2022-12-07T04:46:09;4.20;98.40
16412;DHT22;8315;52.104;6.304;2022-12-07T04:48:36;4.20;98.40
16412;DHT22;8315;52.104;6.304;2022-12-07T04:51:02;4.30;98.40
16412;DHT22;8315;52.104;6.304;2022-12-07T04:53:31;4.30;98.40
16412;DHT22;8315;52.104;6.304;2022-12-07T04:55:58;4.20;98.40
16412;DHT22;8315;52.104;6.304;2022-12-07T04:58:26;4.30;98.40
16412;DHT22;8315;52.104;6.304;2022-12-07T05:00:53;4.30;98.40
16412;DHT22;8315;52.104;6.304;2022-12-07T05:03:20;4.30;98.40
16412;DHT22;8315;52.104;6.304;2022-12-07T05:05:47;4.30;98.40
16412;DHT22;8315;52.104;6.304;2022-12-07T05:08:14;4.30;98.40
16412;DHT22;8315;52.104;6.304;2022-12-07T05:10:42;4.30;98.40
16412;DHT22;8315;52.104;6.304;2022-12-07T05:13:09;4.30;98.40
16412;DHT22;8315;52.104;6.304;2022-12-07T05:15:35;4.20;98.40
16412;DHT22;8315;52.104;6.304;2022-12-07T05:18:02;4.20;98.40
16412;DHT22;8315;52.104;6.304;2022-12-07T05:20:29;4.10;98.40
16412;DHT22;8315;52.104;6.304;2022-12-07T05:22:56;4.10;98.40
16412;DHT22;8315;52.104;6.304;2022-12-07T05:25:24;4.10;98.40
16412;DHT22;8315;52.104;6.304;2022-12-07T05:27:52;4.00;98.40
16412;DHT22;8315;52.104;6.304;2022-12-07T05:30:19;4.00;98.40
16412;DHT22;8315;52.104;6.304;2022-12-07T05:32:45;4.00;98.40
16412;DHT22;8315;52.104;6.304;2022-12-07T05:35:12;4.00;98.40
16412;DHT22;8315;52.104;6.304;2022-12-07T05:37:39;4.00;98.40
16412;DHT22;8315;52.104;6.304;2022-12-07T05:40:06;4.10;98.40
16412;DHT22;8315;52.104;6.304;2022-12-07T05:42:34;4.10;98.40
16412;DHT22;8315;52.104;6.304;2022-12-07T05:45:03;4.10;98.40
16412;DHT22;8315;52.104;6.304;2022-12-07T05:47:30;4.10;98.40
16412;DHT22;8315;52.104;6.304;2022-12-07T05:49:57;4.10;98.40
16412;DHT22;8315;52.104;6.304;2022-12-07T05:52:23;4.10;98.40
16412;DHT22;8315;52.104;6.304;2022-12-07T05:54:51;4.10;98.40
16412;DHT22;8315;52.104;6.304;2022-12-07T05:57:18;4.10;98.40
16412;DHT22;8315;52.104;6.304;2022-12-07T05:59:45;4.10;98.40
16412;DHT22;8315;52.104;6.304;2022-12-07T06:02:13;4.10;98.40
16412;DHT22;8315;52.104;6.304;2022-12-07T06:04:41;4.10;98.40
16412;DHT22;8315;52.104;6.304;2022-12-07T06:07:10;4.10;98.40
16412;DHT22;8315;52.104;6.304;2022-12-07T06:09:37;4.10;98.40
16412;DHT22;8315;52.104;6.304;2022-12-07T06:12:04;4.10;98.40
16412;DHT22;8315;52.104;6.304;2022-12-07T06:14:50;4.10;98.40
16412;DHT22;8315;52.104;6.304;2022-12-07T06:17:18;4.20;98.40
16412;DHT22;8315;52.104;6.304;2022-12-07T06:19:45;4.20;98.40
16412;DHT22;8315;52.104;6.304;2022-12-07T06:22:12;4.20;98.40
16412;DHT22;8315;52.104;6.304;2022-12-07T06:24:39;4.20;98.40
16412;DHT22;8315;52.104;6.304;2022-12-07T06:27:06;4.20;98.40
16412;DHT22;8315;52.104;6.304;2022-12-07T06:29:33;4.20;98.40
16412;DHT22;8315;52.104;6.304;2022-12-07T06:32:00;4.10;98.40
16412;DHT22;8315;52.104;6.304;2022-12-07T06:34:28;4.10;98.40
16412;DHT22;8315;52.104;6.304;2022-12-07T06:36:55;4.10;98.40
16412;DHT22;8315;52.104;6.304;2022-12-07T06:39:22;4.20;98.40
16412;DHT22;8315;52.104;6.304;2022-12-07T06:41:50;4.10;98.40
16412;DHT22;8315;52.104;6.304;2022-12-07T06:44:18;4.10;98.40
16412;DHT22;8315;52.104;6.304;2022-12-07T06:46:45;4.10;98.40
16412;DHT22;8315;52.104;6.304;2022-12-07T06:49:12;4.20;98.40
16412;DHT22;8315;52.104;6.304;2022-12-07T06:51:40;4.20;98.40
16412;DHT22;8315;52.104;6.304;2022-12-07T06:54:07;4.20;98.40
16412;DHT22;8315;52.104;6.304;2022-12-07T06:56:34;4.20;98.40
16412;DHT22;8315;52.104;6.304;2022-12-07T06:59:01;4.10;98.40
16412;DHT22;8315;52.104;6.304;2022-12-07T07:01:28;4.10;98.40
16412;DHT22;8315;52.104;6.304;2022-12-07T07:03:55;4.10;98.40
16412;DHT22;8315;52.104;6.304;2022-12-07T07:06:21;4.10;98.40
16412;DHT22;8315;52.104;6.304;2022-12-07T07:08:49;4.10;98.40
16412;DHT22;8315;52.104;6.304;2022-12-07T07:11:16;4.00;98.40
16412;DHT22;8315;52.104;6.304;2022-12-07T07:13:43;4.00;98.40
16412;DHT22;8315;52.104;6.304;2022-12-07T07:16:10;3.90;98.40
16412;DHT22;8315;52.104;6.304;2022-12-07T07:18:37;3.90;98.40
16412;DHT22;8315;52.104;6.304;2022-12-07T07:21:04;3.90;98.40
16412;DHT22;8315;52.104;6.304;2022-12-07T07:23:31;4.00;98.40
16412;DHT22;8315;52.104;6.304;2022-12-07T07:25:59;4.00;98.40
16412;DHT22;8315;52.104;6.304;2022-12-07T07:28:26;3.90;98.40
16412;DHT22;8315;52.104;6.304;2022-12-07T07:30:53;3.80;98.40
16412;DHT22;8315;52.104;6.304;2022-12-07T07:33:20;3.80;98.40
16412;DHT22;8315;52.104;6.304;2022-12-07T07:35:46;3.90;98.40
16412;DHT22;8315;52.104;6.304;2022-12-07T07:38:13;3.90;98.40
16412;DHT22;8315;52.104;6.304;2022-12-07T07:40:40;3.90;98.40
16412;DHT22;8315;52.104;6.304;2022-12-07T07:43:08;3.90;98.40
16412;DHT22;8315;52.104;6.304;2022-12-07T07:45:35;3.80;98.40
16412;DHT22;8315;52.104;6.304;2022-12-07T07:48:02;3.80;98.40
16412;DHT22;8315;52.104;6.304;2022-12-07T07:50:29;3.80;98.40
16412;DHT22;8315;52.104;6.304;2022-12-07T07:52:56;3.70;98.40
16412;DHT22;8315;52.104;6.304;2022-12-07T07:55:23;3.80;98.40
16412;DHT22;8315;52.104;6.304;2022-12-07T07:57:50;3.70;98.40
16412;DHT22;8315;52.104;6.304;2022-12-07T08:00:18;3.60;98.40
16412;DHT22;8315;52.104;6.304;2022-12-07T08:02:46;3.60;98.40
16412;DHT22;8315;52.104;6.304;2022-12-07T08:05:13;3.50;98.40
16412;DHT22;8315;52.104;6.304;2022-12-07T08:07:40;3.50;98.40
16412;DHT22;8315;52.104;6.304;2022-12-07T08:10:07;3.50;98.40
16412;DHT22;8315;52.104;6.304;2022-12-07T08:12:37;3.50;98.40
16412;DHT22;8315;52.104;6.304;2022-12-07T08:15:26;3.50;98.40
16412;DHT22;8315;52.104;6.304;2022-12-07T08:17:54;3.50;98.40
16412;DHT22;8315;52.104;6.304;2022-12-07T08:20:20;3.60;98.40
16412;DHT22;8315;52.104;6.304;2022-12-07T08:22:47;3.60;98.40
16412;DHT22;8315;52.104;6.304;2022-12-07T08:25:14;3.60;98.40
16412;DHT22;8315;52.104;6.304;2022-12-07T08:27:41;3.50;98.40
16412;DHT22;8315;52.104;6.304;2022-12-07T08:30:08;3.60;98.40
16412;DHT22;8315;52.104;6.304;2022-12-07T08:32:36;3.60;98.40
16412;DHT22;8315;52.104;6.304;2022-12-07T08:35:03;3.60;98.40
16412;DHT22;8315;52.104;6.304;2022-12-07T08:37:31;3.70;98.40
16412;DHT22;8315;52.104;6.304;2022-12-07T08:39:58;3.70;98.40
16412;DHT22;8315;52.104;6.304;2022-12-07T08:42:25;3.70;98.40
16412;DHT22;8315;52.104;6.304;2022-12-07T08:44:55;3.70;98.40
16412;DHT22;8315;52.104;6.304;2022-12-07T08:47:22;3.80;98.40
16412;DHT22;8315;52.104;6.304;2022-12-07T08:49:51;3.80;98.40
16412;DHT22;8315;52.104;6.304;2022-12-07T08:52:18;3.90;98.40
16412;DHT22;8315;52.104;6.304;2022-12-07T08:54:46;3.90;98.40
16412;DHT22;8315;52.104;6.304;2022-12-07T08:57:13;3.90;98.40
16412;DHT22;8315;52.104;6.304;2022-12-07T08:59:39;4.00;98.40
16412;DHT22;8315;52.104;6.304;2022-12-07T09:02:06;4.10;98.40
16412;DHT22;8315;52.104;6.304;2022-12-07T09:04:33;4.10;98.40
16412;DHT22;8315;52.104;6.304;2022-12-07T09:07:01;4.20;98.40
16412;DHT22;8315;52.104;6.304;2022-12-07T09:09:29;4.20;98.40
16412;DHT22;8315;52.104;6.304;2022-12-07T09:11:56;4.30;98.40
16412;DHT22;8315;52.104;6.304;2022-12-07T09:14:22;4.30;98.40
16412;DHT22;8315;52.104;6.304;2022-12-07T09:16:49;4.30;98.40
16412;DHT22;8315;52.104;6.304;2022-12-07T09:19:16;4.30;98.40
16412;DHT22;8315;52.104;6.304;2022-12-07T09:21:43;4.40;98.40
16412;DHT22;8315;52.104;6.304;2022-12-07T09:24:12;4.40;98.40
16412;DHT22;8315;52.104;6.304;2022-12-07T09:26:39;4.40;98.40
16412;DHT22;8315;52.104;6.304;2022-12-07T09:29:06;4.50;98.40
16412;DHT22;8315;52.104;6.304;2022-12-07T09:31:33;4.60;98.40
16412;DHT22;8315;52.104;6.304;2022-12-07T09:34:02;4.60;98.40
16412;DHT22;8315;52.104;6.304;2022-12-07T09:36:30;4.60;98.40
16412;DHT22;8315;52.104;6.304;2022-12-07T09:38:57;4.70;98.40
16412;DHT22;8315;52.104;6.304;2022-12-07T09:41:25;4.70;98.40
16412;DHT22;8315;52.104;6.304;2022-12-07T09:44:02;4.80;98.40
16412;DHT22;8315;52.104;6.304;2022-12-07T09:46:30;4.80;98.40
16412;DHT22;8315;52.104;6.304;2022-12-07T09:49:01;4.90;98.40
16412;DHT22;8315;52.104;6.304;2022-12-07T09:51:28;4.90;98.40
16412;DHT22;8315;52.104;6.304;2022-12-07T09:53:55;4.90;98.40
16412;DHT22;8315;52.104;6.304;2022-12-07T09:56:23;4.90;98.40
16412;DHT22;8315;52.104;6.304;2022-12-07T09:58:51;5.00;98.40
16412;DHT22;8315;52.104;6.304;2022-12-07T10:01:21;5.10;98.40
16412;DHT22;8315;52.104;6.304;2022-12-07T10:03:48;5.10;98.40
16412;DHT22;8315;52.104;6.304;2022-12-07T10:06:16;5.20;98.40
16412;DHT22;8315;52.104;6.304;2022-12-07T10:08:43;5.30;98.40
16412;DHT22;8315;52.104;6.304;2022-12-07T10:11:10;5.30;98.40
16412;DHT22;8315;52.104;6.304;2022-12-07T10:13:39;5.40;98.40
16412;DHT22;8315;52.104;6.304;2022-12-07T10:16:23;5.50;98.40
16412;DHT22;8315;52.104;6.304;2022-12-07T10:18:55;5.60;98.40
16412;DHT22;8315;52.104;6.304;2022-12-07T10:21:23;5.60;98.40
16412;DHT22;8315;52.104;6.304;2022-12-07T10:24:00;5.70;98.40
16412;DHT22;8315;52.104;6.304;2022-12-07T10:26:31;5.70;98.40
16412;DHT22;8315;52.104;6.304;2022-12-07T10:29:02;5.80;98.40
16412;DHT22;8315;52.104;6.304;2022-12-07T10:31:30;5.90;98.40
16412;DHT22;8315;52.104;6.304;2022-12-07T10:33:58;5.90;98.40
16412;DHT22;8315;52.104;6.304;2022-12-07T10:36:27;6.00;98.40
16412;DHT22;8315;52.104;6.304;2022-12-07T10:39:01;6.20;98.40
16412;DHT22;8315;52.104;6.304;2022-12-07T10:41:29;6.30;98.40
16412;DHT22;8315;52.104;6.304;2022-12-07T10:43:57;6.50;98.40
16412;DHT22;8315;52.104;6.304;2022-12-07T10:46:46;6.40;98.40
16412;DHT22;8315;52.104;6.304;2022-12-07T10:49:35;6.30;98.40
16412;DHT22;8315;52.104;6.304;2022-12-07T10:52:21;6.30;98.40
16412;DHT22;8315;52.104;6.304;2022-12-07T10:55:07;6.20;98.40
16412;DHT22;8315;52.104;6.304;2022-12-07T10:57:41;6.20;98.40
16412;DHT22;8315;52.104;6.304;2022-12-07T11:00:18;6.20;98.40
16412;DHT22;8315;52.104;6.304;2022-12-07T11:02:52;6.10;98.40
16412;DHT22;8315;52.104;6.304;2022-12-07T11:05:26;6.10;98.40
16412;DHT22;8315;52.104;6.304;2022-12-07T11:07:59;6.20;98.40
16412;DHT22;8315;52.104;6.304;2022-12-07T11:10:30;6.20;98.40
16412;DHT22;8315;52.104;6.304;2022-12-07T11:15:54;6.30;98.40
16412;DHT22;8315;52.104;6.304;2022-12-07T11:18:32;6.40;98.40
16412;DHT22;8315;52.104;6.304;2022-12-07T11:21:06;6.30;98.40
16412;DHT22;8315;52.104;6.304;2022-12-07T11:23:40;6.30;98.40
16412;DHT22;8315;52.104;6.304;2022-12-07T11:26:13;6.40;98.40
16412;DHT22;8315;52.104;6.304;2022-12-07T11:28:55;6.40;98.40
16412;DHT22;8315;52.104;6.304;2022-12-07T11:31:29;6.40;98.40
16412;DHT22;8315;52.104;6.304;2022-12-07T11:34:03;6.50;98.40
16412;DHT22;8315;52.104;6.304;2022-12-07T11:36:36;6.50;98.40
16412;DHT22;8315;52.104;6.304;2022-12-07T11:39:08;6.50;98.40
16412;DHT22;8315;52.104;6.304;2022-12-07T11:41:41;6.50;98.40
16412;DHT22;8315;52.104;6.304;2022-12-07T11:44:16;6.50;98.40
16412;DHT22;8315;52.104;6.304;2022-12-07T11:46:49;6.50;98.40
16412;DHT22;8315;52.104;6.304;2022-12-07T11:49:21;6.60;98.40
16412;DHT22;8315;52.104;6.304;2022-12-07T11:51:53;6.60;98.40
16412;DHT22;8315;52.104;6.304;2022-12-07T11:54:24;6.70;98.40
16412;DHT22;8315;52.104;6.304;2022-12-07T11:56:54;6.70;98.40
16412;DHT22;8315;52.104;6.304;2022-12-07T11:59:23;6.70;98.40
16412;DHT22;8315;52.104;6.304;2022-12-07T12:01:55;6.70;98.40
16412;DHT22;8315;52.104;6.304;2022-12-07T12:04:27;7.00;98.40
16412;DHT22;8315;52.104;6.304;2022-12-07T12:06:57;7.30;98.40
16412;DHT22;8315;52.104;6.304;2022-12-07T12:09:26;7.30;98.40
16412;DHT22;8315;52.104;6.304;2022-12-07T12:12:08;7.50;98.40
16412;DHT22;8315;52.104;6.304;2022-12-07T12:14:47;7.40;98.40
16412;DHT22;8315;52.104;6.304;2022-12-07T12:17:32;7.30;98.40
16412;DHT22;8315;52.104;6.304;2022-12-07T12:20:17;7.10;98.40
16412;DHT22;8315;52.104;6.304;2022-12-07T12:22:48;7.10;98.40
16412;DHT22;8315;52.104;6.304;2022-12-07T12:25:19;7.10;98.40
16412;DHT22;8315;52.104;6.304;2022-12-07T12:27:48;7.40;98.40
16412;DHT22;8315;52.104;6.304;2022-12-07T12:30:29;7.80;98.40
16412;DHT22;8315;52.104;6.304;2022-12-07T12:33:02;7.90;98.40
16412;DHT22;8315;52.104;6.304;2022-12-07T12:35:33;7.70;98.40
16412;DHT22;8315;52.104;6.304;2022-12-07T12:40:50;7.80;98.40
16412;DHT22;8315;52.104;6.304;2022-12-07T12:49:32;7.40;98.40
16412;DHT22;8315;52.104;6.304;2022-12-07T12:55:17;7.40;98.40
16412;DHT22;8315;52.104;6.304;2022-12-07T12:57:47;7.40;98.40
16412;DHT22;8315;52.104;6.304;2022-12-07T13:00:18;7.30;98.40
16412;DHT22;8315;52.104;6.304;2022-12-07T13:02:50;7.30;98.40
16412;DHT22;8315;52.104;6.304;2022-12-07T13:05:18;7.30;98.40
16412;DHT22;8315;52.104;6.304;2022-12-07T13:07:53;7.20;98.40
16412;DHT22;8315;52.104;6.304;2022-12-07T13:10:25;7.20;98.40
16412;DHT22;8315;52.104;6.304;2022-12-07T13:13:04;7.50;98.40
16412;DHT22;8315;52.104;6.304;2022-12-07T13:15:50;7.80;98.40
16412;DHT22;8315;52.104;6.304;2022-12-07T13:18:25;7.70;98.40
16412;DHT22;8315;52.104;6.304;2022-12-07T13:21:01;7.60;98.40
16412;DHT22;8315;52.104;6.304;2022-12-07T13:23:29;7.70;98.40
16412;DHT22;8315;52.104;6.304;2022-12-07T13:26:03;8.10;98.40
16412;DHT22;8315;52.104;6.304;2022-12-07T13:28:36;8.40;98.40
16412;DHT22;8315;52.104;6.304;2022-12-07T13:31:11;8.50;98.40
16412;DHT22;8315;52.104;6.304;2022-12-07T13:33:50;8.80;98.40
16412;DHT22;8315;52.104;6.304;2022-12-07T13:36:21;9.00;98.40
16412;DHT22;8315;52.104;6.304;2022-12-07T13:38:56;9.20;98.40
16412;DHT22;8315;52.104;6.304;2022-12-07T13:41:25;9.30;98.40
16412;DHT22;8315;52.104;6.304;2022-12-07T13:43:54;9.40;98.40
16412;DHT22;8315;52.104;6.304;2022-12-07T13:46:31;9.50;98.40
16412;DHT22;8315;52.104;6.304;2022-12-07T13:49:02;9.60;98.40
16412;DHT22;8315;52.104;6.304;2022-12-07T13:51:29;9.50;98.40
16412;DHT22;8315;52.104;6.304;2022-12-07T13:54:01;9.70;98.40
16412;DHT22;8315;52.104;6.304;2022-12-07T13:56:37;9.80;98.40
16412;DHT22;8315;52.104;6.304;2022-12-07T13:59:05;9.90;98.40
16412;DHT22;8315;52.104;6.304;2022-12-07T14:01:32;9.90;98.40
16412;DHT22;8315;52.104;6.304;2022-12-07T14:06:59;9.10;98.40
16412;DHT22;8315;52.104;6.304;2022-12-07T14:09:27;8.70;98.40
16412;DHT22;8315;52.104;6.304;2022-12-07T14:11:56;8.60;98.40
16412;DHT22;8315;52.104;6.304;2022-12-07T14:14:25;8.50;98.40
16412;DHT22;8315;52.104;6.304;2022-12-07T14:16:57;8.50;98.40
16412;DHT22;8315;52.104;6.304;2022-12-07T14:19:40;8.40;98.40
16412;DHT22;8315;52.104;6.304;2022-12-07T14:22:09;8.30;98.40
16412;DHT22;8315;52.104;6.304;2022-12-07T14:24:44;8.10;98.40
16412;DHT22;8315;52.104;6.304;2022-12-07T14:27:17;8.00;98.40
16412;DHT22;8315;52.104;6.304;2022-12-07T14:29:45;8.00;98.40
16412;DHT22;8315;52.104;6.304;2022-12-07T14:32:23;8.00;98.40
16412;DHT22;8315;52.104;6.304;2022-12-07T14:34:57;8.00;98.40
16412;DHT22;8315;52.104;6.304;2022-12-07T14:37:26;7.90;98.40
16412;DHT22;8315;52.104;6.304;2022-12-07T14:39:53;7.80;98.40
16412;DHT22;8315;52.104;6.304;2022-12-07T14:42:22;7.70;98.40
16412;DHT22;8315;52.104;6.304;2022-12-07T14:44:51;7.70;98.40
16412;DHT22;8315;52.104;6.304;2022-12-07T14:47:17;7.70;98.40
16412;DHT22;8315;52.104;6.304;2022-12-07T14:49:44;7.60;98.40
16412;DHT22;8315;52.104;6.304;2022-12-07T14:52:12;7.50;98.40
16412;DHT22;8315;52.104;6.304;2022-12-07T14:54:40;7.50;98.40
16412;DHT22;8315;52.104;6.304;2022-12-07T14:57:08;7.50;98.40
16412;DHT22;8315;52.104;6.304;2022-12-07T14:59:36;7.40;98.40
16412;DHT22;8315;52.104;6.304;2022-12-07T15:02:03;7.40;98.40
16412;DHT22;8315;52.104;6.304;2022-12-07T15:04:30;7.40;98.40
16412;DHT22;8315;52.104;6.304;2022-12-07T15:06:57;7.40;98.40
16412;DHT22;8315;52.104;6.304;2022-12-07T15:09:24;7.30;98.40
16412;DHT22;8315;52.104;6.304;2022-12-07T15:11:51;7.20;98.40
16412;DHT22;8315;52.104;6.304;2022-12-07T15:14:18;7.20;98.40
16412;DHT22;8315;52.104;6.304;2022-12-07T15:16:46;7.00;98.40
16412;DHT22;8315;52.104;6.304;2022-12-07T15:19:13;6.80;98.40
16412;DHT22;8315;52.104;6.304;2022-12-07T15:21:41;6.70;98.40
16412;DHT22;8315;52.104;6.304;2022-12-07T15:24:09;6.50;98.40
16412;DHT22;8315;52.104;6.304;2022-12-07T15:26:36;6.40;98.40
16412;DHT22;8315;52.104;6.304;2022-12-07T15:29:03;6.40;98.40
16412;DHT22;8315;52.104;6.304;2022-12-07T15:31:31;6.30;98.40
16412;DHT22;8315;52.104;6.304;2022-12-07T15:34:00;6.30;98.40
16412;DHT22;8315;52.104;6.304;2022-12-07T15:36:27;6.40;98.40
16412;DHT22;8315;52.104;6.304;2022-12-07T15:38:55;6.40;98.40
16412;DHT22;8315;52.104;6.304;2022-12-07T15:41:22;6.40;98.40
16412;DHT22;8315;52.104;6.304;2022-12-07T15:43:49;6.40;98.40
16412;DHT22;8315;52.104;6.304;2022-12-07T15:46:35;6.30;98.40
16412;DHT22;8315;52.104;6.304;2022-12-07T15:49:04;6.20;98.40
16412;DHT22;8315;52.104;6.304;2022-12-07T15:51:34;6.30;98.40
16412;DHT22;8315;52.104;6.304;2022-12-07T15:54:01;6.30;98.40
16412;DHT22;8315;52.104;6.304;2022-12-07T15:56:27;6.30;98.40
16412;DHT22;8315;52.104;6.304;2022-12-07T15:58:55;6.30;98.40
16412;DHT22;8315;52.104;6.304;2022-12-07T16:01:22;6.30;98.40
16412;DHT22;8315;52.104;6.304;2022-12-07T16:03:49;6.20;98.40
16412;DHT22;8315;52.104;6.304;2022-12-07T16:06:17;6.20;98.40
16412;DHT22;8315;52.104;6.304;2022-12-07T16:08:45;6.20;98.40
16412;DHT22;8315;52.104;6.304;2022-12-07T16:11:12;6.20;98.40
16412;DHT22;8315;52.104;6.304;2022-12-07T16:13:39;6.20;98.40
16412;DHT22;8315;52.104;6.304;2022-12-07T16:16:07;6.20;98.40
16412;DHT22;8315;52.104;6.304;2022-12-07T16:18:35;6.20;98.40
16412;DHT22;8315;52.104;6.304;2022-12-07T16:21:01;6.10;98.40
16412;DHT22;8315;52.104;6.304;2022-12-07T16:23:31;6.10;98.40
16412;DHT22;8315;52.104;6.304;2022-12-07T16:26:03;6.10;98.40
16412;DHT22;8315;52.104;6.304;2022-12-07T16:28:30;6.10;98.40
16412;DHT22;8315;52.104;6.304;2022-12-07T16:30:59;6.10;98.40
16412;DHT22;8315;52.104;6.304;2022-12-07T16:33:27;6.10;98.40
16412;DHT22;8315;52.104;6.304;2022-12-07T16:35:54;6.10;98.40
16412;DHT22;8315;52.104;6.304;2022-12-07T16:38:21;6.00;98.40
16412;DHT22;8315;52.104;6.304;2022-12-07T16:40:49;5.90;98.40